Private Wetterstation Wechselburg
Wetterdaten: Woche 06.06.11 - 12.06.11 (KW23)
Datum Zeit Temp. +2m Bodentemp. Temp.+5cm Temp. Wind Windchill X Diff Temp. Feuchte +2m Feuchte +5cm Sonnenschein Luftdruck Regen Wind Richtung Sonnenschein UV Taupunkt Windchill Windben
06.06.2011 00:00 19,4 C 22,8 C 17,4 C 18,5 C 16,7 C 0,0 C 83 % 93 % 0 % 1005,6 hPa 0,0 l/m 0,2 km/h (0 Bft) N 0,00 h 0,0 UV-I 16,4 C 16,7 C 0,6 km/h (0 Bft)
06.06.2011 01:00 18,9 C 22,6 C 17,1 C 18,2 C 16,6 C 0,0 C 85 % 94 % 0 % 1005,2 hPa 0,0 l/m 0,2 km/h (0 Bft) N 0,00 h 0,0 UV-I 16,3 C 16,6 C 0,2 km/h (0 Bft)
06.06.2011 02:00 18,7 C 22,4 C 17,0 C 17,9 C 16,4 C 0,0 C 85 % 94 % 0 % 1004,9 hPa 0,0 l/m 0,1 km/h (0 Bft) N 0,00 h 0,0 UV-I 16,2 C 16,4 C 0,0 km/h (0 Bft)
06.06.2011 03:00 18,2 C 22,2 C 16,5 C 17,4 C 15,7 C 0,0 C 86 % 94 % 0 % 1004,9 hPa 0,0 l/m 0,5 km/h (0 Bft) O-NO 0,00 h 0,0 UV-I 15,7 C 15,7 C 1,0 km/h (0 Bft)
06.06.2011 04:00 17,4 C 22,1 C 15,9 C 16,7 C 15,2 C 0,0 C 86 % 94 % 0 % 1004,9 hPa 0,0 l/m 0,8 km/h (0 Bft) W-SW 0,00 h 0,0 UV-I 15,0 C 15,2 C 1,1 km/h (1 Bft)
06.06.2011 05:00 17,1 C 21,9 C 15,6 C 16,4 C 14,9 C 0,0 C 86 % 94 % 0 % 1004,8 hPa 0,0 l/m 0,3 km/h (0 Bft) N 0,00 h 0,0 UV-I 14,8 C 14,9 C 0,7 km/h (0 Bft)
06.06.2011 06:00 18,4 C 21,6 C 15,7 C 17,4 C 15,6 C 0,0 C 84 % 95 % 0 % 1004,8 hPa 0,0 l/m 0,2 km/h (0 Bft) N 0,00 h 0,0 UV-I 15,5 C 15,6 C 0,1 km/h (0 Bft)
06.06.2011 07:00 20,2 C 21,3 C 16,7 C 25,3 C 25,3 C 5,1 C 81 % 95 % 90 % 1004,9 hPa 0,0 l/m 0,0 km/h (0 Bft) N 0,75 h 0,2 UV-I 16,8 C 25,3 C 0,0 km/h (0 Bft)
06.06.2011 08:00 24,9 C 21,0 C 18,1 C 30,0 C 30,0 C 5,1 C 70 % 95 % 91 % 1005,0 hPa 0,0 l/m 0,3 km/h (0 Bft) N 0,83 h 0,7 UV-I 19,0 C 30,0 C 0,4 km/h (0 Bft)
06.06.2011 09:00 24,1 C 21,0 C 19,1 C 30,9 C 30,9 C 6,9 C 65 % 94 % 100 % 1005,0 hPa 0,0 l/m 1,9 km/h (1 Bft) SW 1,00 h 1,5 UV-I 17,0 C 30,9 C 2,5 km/h (1 Bft)
06.06.2011 10:00 24,3 C 21,0 C 20,3 C 32,0 C 32,0 C 7,7 C 61 % 90 % 100 % 1004,8 hPa 0,0 l/m 1,3 km/h (1 Bft) W-SW 1,00 h 2,0 UV-I 16,4 C 32,0 C 1,1 km/h (0 Bft)
06.06.2011 11:00 25,3 C 21,1 C 22,3 C 31,2 C 31,2 C 5,9 C 60 % 77 % 100 % 1004,7 hPa 0,0 l/m 2,6 km/h (1 Bft) S 1,00 h 2,8 UV-I 16,9 C 31,2 C 3,3 km/h (1 Bft)
06.06.2011 12:00 26,5 C 21,2 C 24,2 C 32,1 C 32,1 C 5,7 C 58 % 70 % 100 % 1004,5 hPa 0,0 l/m 2,6 km/h (1 Bft) S 1,00 h 3,8 UV-I 17,4 C 32,1 C 3,9 km/h (1 Bft)
06.06.2011 13:00 26,1 C 21,3 C 24,5 C 28,0 C 28,0 C 1,9 C 59 % 67 % 50 % 1004,2 hPa 0,0 l/m 5,1 km/h (1 Bft) W-SW 0,08 h 1,8 UV-I 17,4 C 28,0 C 6,2 km/h (2 Bft)
06.06.2011 14:00 22,7 C 21,9 C 21,1 C 23,2 C 22,7 C 0,8 C 76 % 85 % 21 % 1004,3 hPa 5,5 l/m 2,1 km/h (1 Bft) NO 0,08 h 1,5 UV-I 18,3 C 22,7 C 3,4 km/h (1 Bft)
06.06.2011 15:00 23,4 C 21,8 C 22,5 C 29,0 C 29,0 C 5,6 C 82 % 91 % 100 % 1003,6 hPa 0,0 l/m 1,4 km/h (1 Bft) SW 1,00 h 2,3 UV-I 20,1 C 29,0 C 2,9 km/h (1 Bft)
06.06.2011 16:00 23,8 C 21,8 C 21,7 C 25,8 C 25,8 C 2,0 C 74 % 90 % 53 % 1003,7 hPa 0,0 l/m 2,6 km/h (1 Bft) SW 0,08 h 0,7 UV-I 18,9 C 25,8 C 3,4 km/h (1 Bft)
06.06.2011 17:00 23,4 C 22,0 C 21,0 C 23,4 C 23,4 C 0,1 C 70 % 90 % 2 % 1003,8 hPa 0,0 l/m 2,2 km/h (1 Bft) S 0,00 h 0,2 UV-I 17,5 C 23,4 C 4,2 km/h (1 Bft)
06.06.2011 18:00 23,1 C 22,0 C 21,1 C 23,0 C 22,9 C 0,0 C 70 % 90 % 0 % 1003,2 hPa 0,0 l/m 1,5 km/h (1 Bft) SW 0,00 h 0,1 UV-I 17,3 C 22,9 C 2,9 km/h (1 Bft)
06.06.2011 19:00 22,4 C 22,0 C 20,6 C 22,1 C 21,5 C 0,0 C 69 % 84 % 0 % 1003,5 hPa 0,0 l/m 2,2 km/h (1 Bft) O-SO 0,00 h 0,0 UV-I 16,4 C 21,5 C 2,8 km/h (1 Bft)
06.06.2011 20:00 21,4 C 21,9 C 19,7 C 20,9 C 19,9 C 0,0 C 72 % 82 % 0 % 1003,7 hPa 0,0 l/m 0,5 km/h (0 Bft) S 0,00 h 0,0 UV-I 16,1 C 19,9 C 0,5 km/h (0 Bft)
06.06.2011 21:00 20,4 C 21,8 C 18,7 C 19,6 C 18,0 C 0,0 C 75 % 84 % 0 % 1003,8 hPa 0,0 l/m 0,0 km/h (0 Bft) N 0,00 h 0,0 UV-I 15,8 C 18,0 C 0,0 km/h (0 Bft)
06.06.2011 22:00 19,4 C 21,9 C 17,6 C 18,4 C 16,4 C 0,0 C 80 % 88 % 0 % 1004,1 hPa 0,0 l/m 0,1 km/h (0 Bft) N 0,00 h 0,0 UV-I 15,9 C 16,4 C 0,2 km/h (0 Bft)
06.06.2011 23:00 18,5 C 21,7 C 16,8 C 17,5 C 15,4 C 0,0 C 82 % 89 % 0 % 1004,1 hPa 0,0 l/m 0,1 km/h (0 Bft) N 0,00 h 0,0 UV-I 15,3 C 15,4 C 0,0 km/h (0 Bft)
07.06.2011 00:00 17,8 C 21,6 C 16,3 C 17,0 C 15,4 C 0,0 C 82 % 90 % 0 % 1004,7 hPa 0,0 l/m 0,6 km/h (0 Bft) O-NO 0,00 h 0,0 UV-I 14,7 C 15,4 C 1,3 km/h (1 Bft)
07.06.2011 01:00 17,7 C 21,4 C 16,1 C 16,8 C 15,2 C 0,0 C 83 % 91 % 0 % 1004,7 hPa 0,0 l/m 0,0 km/h (0 Bft) N 0,00 h 0,0 UV-I 14,7 C 15,2 C 0,0 km/h (0 Bft)
07.06.2011 02:00 17,5 C 21,3 C 16,0 C 16,7 C 14,9 C 0,0 C 84 % 91 % 0 % 1004,4 hPa 0,0 l/m 0,1 km/h (0 Bft) N 0,00 h 0,0 UV-I 14,7 C 14,9 C 0,3 km/h (0 Bft)
07.06.2011 03:00 17,2 C 21,2 C 15,7 C 16,3 C 14,7 C 0,0 C 84 % 91 % 0 % 1004,1 hPa 0,0 l/m 0,2 km/h (0 Bft) N 0,00 h 0,0 UV-I 14,4 C 14,7 C 0,8 km/h (0 Bft)
07.06.2011 04:00 17,0 C 21,0 C 15,6 C 16,2 C 14,6 C 0,0 C 84 % 91 % 0 % 1004,3 hPa 0,0 l/m 0,5 km/h (0 Bft) S 0,00 h 0,0 UV-I 14,3 C 14,6 C 1,1 km/h (1 Bft)
07.06.2011 05:00 17,1 C 20,9 C 15,8 C 16,5 C 15,3 C 0,0 C 83 % 90 % 0 % 1004,8 hPa 0,0 l/m 0,0 km/h (0 Bft) N 0,00 h 0,0 UV-I 14,2 C 15,3 C 0,0 km/h (0 Bft)
07.06.2011 06:00 17,3 C 20,8 C 16,1 C 16,9 C 16,2 C 0,0 C 83 % 89 % 0 % 1005,0 hPa 0,0 l/m 0,4 km/h (0 Bft) S 0,00 h 0,0 UV-I 14,4 C 16,2 C 0,9 km/h (0 Bft)
07.06.2011 07:00 17,8 C 20,7 C 16,7 C 17,9 C 17,7 C 0,3 C 82 % 89 % 7 % 1005,5 hPa 0,0 l/m 0,3 km/h (0 Bft) N 0,00 h 0,2 UV-I 14,7 C 17,7 C 0,8 km/h (0 Bft)
07.06.2011 08:00 18,8 C 20,5 C 17,7 C 20,2 C 20,2 C 1,4 C 81 % 88 % 37 % 1005,5 hPa 0,0 l/m 0,9 km/h (0 Bft) S 0,00 h 0,4 UV-I 15,5 C 20,2 C 1,9 km/h (1 Bft)
07.06.2011 09:00 20,3 C 20,5 C 19,0 C 23,4 C 23,4 C 3,1 C 77 % 85 % 80 % 1005,8 hPa 0,0 l/m 2,7 km/h (1 Bft) O-SO 0,33 h 0,9 UV-I 16,1 C 23,4 C 4,4 km/h (1 Bft)
07.06.2011 10:00 21,4 C 20,4 C 20,1 C 25,0 C 25,0 C 3,6 C 74 % 82 % 90 % 1005,8 hPa 0,0 l/m 3,8 km/h (1 Bft) S 0,75 h 1,7 UV-I 16,5 C 25,0 C 5,8 km/h (2 Bft)
07.06.2011 11:00 22,5 C 20,5 C 21,1 C 26,2 C 26,2 C 3,6 C 68 % 77 % 94 % 1006,0 hPa 0,0 l/m 4,9 km/h (1 Bft) SW 0,75 h 2,1 UV-I 16,4 C 26,2 C 7,7 km/h (2 Bft)
07.06.2011 12:00 23,6 C 20,6 C 21,9 C 27,8 C 27,8 C 4,2 C 65 % 74 % 100 % 1006,0 hPa 0,0 l/m 3,2 km/h (1 Bft) SW 1,00 h 3,0 UV-I 16,5 C 27,8 C 3,8 km/h (1 Bft)
07.06.2011 13:00 24,8 C 20,7 C 23,2 C 29,0 C 29,0 C 4,1 C 60 % 69 % 89 % 1005,6 hPa 0,0 l/m 4,1 km/h (1 Bft) S 0,67 h 3,2 UV-I 16,5 C 29,0 C 5,3 km/h (1 Bft)
07.06.2011 14:00 25,5 C 20,9 C 25,5 C 29,7 C 29,7 C 4,1 C 56 % 62 % 94 % 1005,6 hPa 0,0 l/m 4,1 km/h (1 Bft) S 0,83 h 3,1 UV-I 16,2 C 29,7 C 4,0 km/h (1 Bft)
07.06.2011 15:00 25,4 C 21,2 C 25,2 C 28,2 C 28,2 C 2,7 C 59 % 63 % 68 % 1005,2 hPa 0,0 l/m 1,8 km/h (1 Bft) S-SW 0,42 h 1,3 UV-I 16,8 C 28,2 C 2,9 km/h (1 Bft)
07.06.2011 16:00 25,7 C 21,4 C 24,5 C 29,8 C 29,8 C 4,1 C 61 % 67 % 92 % 1005,0 hPa 0,0 l/m 1,1 km/h (1 Bft) O-NO 0,92 h 1,3 UV-I 17,5 C 29,8 C 1,4 km/h (1 Bft)
07.06.2011 17:00 25,8 C 21,7 C 24,2 C 28,3 C 28,3 C 2,6 C 60 % 66 % 67 % 1004,7 hPa 0,0 l/m 3,0 km/h (1 Bft) O-NO 0,08 h 0,8 UV-I 17,3 C 28,3 C 4,5 km/h (1 Bft)
07.06.2011 18:00 26,1 C 21,9 C 24,1 C 28,6 C 28,6 C 2,5 C 55 % 63 % 66 % 1004,4 hPa 0,0 l/m 4,0 km/h (1 Bft) O-NO 0,08 h 0,3 UV-I 16,2 C 28,6 C 4,4 km/h (1 Bft)
07.06.2011 19:00 25,6 C 21,9 C 23,8 C 26,8 C 26,8 C 1,2 C 55 % 62 % 31 % 1004,3 hPa 0,0 l/m 3,3 km/h (1 Bft) NO 0,00 h 0,1 UV-I 16,0 C 26,8 C 3,7 km/h (1 Bft)
07.06.2011 20:00 24,0 C 21,9 C 22,3 C 23,7 C 23,1 C 0,0 C 60 % 68 % 0 % 1004,2 hPa 0,0 l/m 2,0 km/h (1 Bft) O-NO 0,00 h 0,0 UV-I 15,8 C 23,1 C 2,3 km/h (1 Bft)
07.06.2011 21:00 22,0 C 22,0 C 20,7 C 21,4 C 20,0 C 0,0 C 69 % 74 % 0 % 1004,1 hPa 0,0 l/m 1,5 km/h (1 Bft) O-NO 0,00 h 0,0 UV-I 16,0 C 20,0 C 2,0 km/h (1 Bft)
07.06.2011 22:00 20,8 C 21,9 C 19,2 C 19,8 C 17,9 C 0,0 C 74 % 80 % 0 % 1004,2 hPa 0,0 l/m 0,1 km/h (0 Bft) N 0,00 h 0,0 UV-I 15,9 C 17,9 C 0,0 km/h (0 Bft)
07.06.2011 23:00 20,0 C 21,9 C 18,3 C 19,0 C 17,2 C 0,0 C 76 % 83 % 0 % 1003,7 hPa 0,0 l/m 0,0 km/h (0 Bft) N 0,00 h 0,0 UV-I 15,6 C 17,2 C 0,0 km/h (0 Bft)
08.06.2011 00:00 18,8 C 21,9 C 17,2 C 17,8 C 15,8 C 0,0 C 80 % 86 % 0 % 1003,2 hPa 0,0 l/m 0,1 km/h (0 Bft) N 0,00 h 0,0 UV-I 15,2 C 15,8 C 0,2 km/h (0 Bft)
08.06.2011 01:00 18,3 C 21,8 C 16,5 C 17,2 C 15,1 C 0,0 C 81 % 88 % 0 % 1002,6 hPa 0,0 l/m 0,0 km/h (0 Bft) N 0,00 h 0,0 UV-I 14,9 C 15,1 C 0,0 km/h (0 Bft)
08.06.2011 02:00 18,0 C 21,6 C 16,4 C 17,1 C 15,5 C 0,0 C 83 % 89 % 0 % 1001,8 hPa 0,0 l/m 0,1 km/h (0 Bft) N 0,00 h 0,0 UV-I 15,0 C 15,5 C 0,2 km/h (0 Bft)
08.06.2011 03:00 18,2 C 21,4 C 16,8 C 17,6 C 16,4 C 0,0 C 83 % 89 % 0 % 1001,2 hPa 0,0 l/m 0,0 km/h (0 Bft) N 0,00 h 0,0 UV-I 15,2 C 16,4 C 0,0 km/h (0 Bft)
08.06.2011 04:00 18,4 C 21,3 C 17,3 C 17,9 C 17,0 C 0,0 C 81 % 87 % 0 % 1000,9 hPa 0,0 l/m 0,2 km/h (0 Bft) N 0,00 h 0,0 UV-I 15,0 C 17,0 C 0,2 km/h (0 Bft)
08.06.2011 05:00 18,2 C 21,4 C 17,1 C 17,6 C 16,4 C 0,0 C 83 % 88 % 0 % 1000,8 hPa 0,0 l/m 0,0 km/h (0 Bft) N 0,00 h 0,0 UV-I 15,2 C 16,4 C 0,0 km/h (0 Bft)
08.06.2011 06:00 18,3 C 21,3 C 17,2 C 18,0 C 17,3 C 0,0 C 84 % 89 % 0 % 1000,5 hPa 0,0 l/m 0,0 km/h (0 Bft) N 0,00 h 0,0 UV-I 15,5 C 17,3 C 0,0 km/h (0 Bft)
08.06.2011 07:00 19,2 C 21,1 C 18,0 C 20,8 C 20,8 C 1,7 C 84 % 89 % 44 % 1000,1 hPa 0,0 l/m 1,0 km/h (0 Bft) N-NO 0,08 h 0,2 UV-I 16,4 C 20,8 C 1,7 km/h (1 Bft)
08.06.2011 08:00 19,8 C 21,0 C 18,7 C 20,7 C 20,7 C 0,9 C 82 % 88 % 24 % 1000,5 hPa 0,0 l/m 2,9 km/h (1 Bft) SW 0,00 h 0,2 UV-I 16,7 C 20,7 C 4,9 km/h (1 Bft)
08.06.2011 09:00 20,6 C 21,0 C 19,3 C 23,2 C 23,2 C 2,6 C 81 % 87 % 66 % 1000,5 hPa 0,0 l/m 2,9 km/h (1 Bft) S-SW 0,33 h 1,1 UV-I 17,1 C 23,2 C 4,5 km/h (1 Bft)
08.06.2011 10:00 22,4 C 20,9 C 20,8 C 27,9 C 27,9 C 5,5 C 76 % 83 % 100 % 1000,3 hPa 0,0 l/m 4,2 km/h (1 Bft) SW 1,00 h 2,1 UV-I 17,9 C 27,9 C 7,1 km/h (2 Bft)
08.06.2011 11:00 22,8 C 20,9 C 21,5 C 25,5 C 25,5 C 2,7 C 74 % 80 % 70 % 1000,9 hPa 0,0 l/m 6,8 km/h (2 Bft) W-SW 0,20 h 1,9 UV-I 17,9 C 25,5 C 10,0 km/h (2 Bft)
08.06.2011 12:00 23,4 C 21,0 C 22,1 C 26,1 C 26,1 C 2,6 C 70 % 77 % 69 % 1001,3 hPa 0,0 l/m 7,5 km/h (2 Bft) SW 0,00 h 2,9 UV-I 17,7 C 26,1 C 11,8 km/h (2 Bft)
08.06.2011 13:00 24,3 C 21,1 C 23,4 C 26,8 C 26,8 C 2,5 C 65 % 70 % 65 % 1001,3 hPa 0,0 l/m 10,3 km/h (2 Bft) SW 0,00 h 3,6 UV-I 17,2 C 26,8 C 17,6 km/h (3 Bft)
08.06.2011 14:00 24,6 C 21,2 C 24,7 C 26,3 C 26,3 C 1,6 C 62 % 64 % 43 % 1001,2 hPa 0,0 l/m 11,0 km/h (2 Bft) SW 0,00 h 2,5 UV-I 16,7 C 26,3 C 15,2 km/h (3 Bft)
08.06.2011 15:00 24,3 C 21,4 C 24,6 C 25,1 C 25,1 C 0,9 C 63 % 63 % 24 % 1001,7 hPa 0,0 l/m 10,3 km/h (2 Bft) W-SW 0,00 h 1,9 UV-I 16,7 C 25,1 C 14,1 km/h (3 Bft)
08.06.2011 16:00 22,3 C 21,7 C 21,0 C 22,1 C 21,6 C 0,0 C 69 % 73 % 0 % 1002,4 hPa 0,0 l/m 8,2 km/h (2 Bft) S 0,00 h 0,6 UV-I 16,2 C 21,6 C 10,1 km/h (2 Bft)
08.06.2011 17:00 21,0 C 21,8 C 19,3 C 20,5 C 19,6 C 0,0 C 75 % 82 % 0 % 1002,8 hPa 0,7 l/m 6,3 km/h (2 Bft) S 0,00 h 0,2 UV-I 16,3 C 19,6 C 7,5 km/h (2 Bft)
08.06.2011 18:00 19,8 C 21,9 C 17,8 C 19,3 C 18,3 C 0,0 C 81 % 90 % 0 % 1003,4 hPa 0,0 l/m 5,7 km/h (1 Bft) S 0,00 h 0,1 UV-I 16,4 C 18,3 C 9,4 km/h (2 Bft)
08.06.2011 19:00 17,7 C 21,9 C 15,6 C 16,9 C 15,1 C 0,0 C 80 % 90 % 0 % 1004,3 hPa 0,0 l/m 8,7 km/h (2 Bft) SW 0,00 h 0,0 UV-I 14,3 C 15,1 C 10,8 km/h (2 Bft)
08.06.2011 20:00 16,3 C 21,7 C 14,3 C 15,5 C 13,7 C 0,0 C 80 % 89 % 0 % 1005,7 hPa 0,0 l/m 8,4 km/h (2 Bft) SW 0,00 h 0,0 UV-I 12,9 C 13,7 C 10,9 km/h (2 Bft)
08.06.2011 21:00 15,5 C 21,4 C 13,7 C 14,8 C 13,2 C 0,0 C 78 % 87 % 0 % 1006,5 hPa 0,0 l/m 8,4 km/h (2 Bft) S-SW 0,00 h 0,0 UV-I 11,8 C 13,2 C 10,8 km/h (2 Bft)
08.06.2011 22:00 15,0 C 21,2 C 13,4 C 14,3 C 12,8 C 0,0 C 78 % 86 % 0 % 1007,6 hPa 0,0 l/m 6,9 km/h (2 Bft) SW 0,00 h 0,0 UV-I 11,3 C 12,8 C 9,1 km/h (2 Bft)
08.06.2011 23:00 14,7 C 20,9 C 13,2 C 14,1 C 12,8 C 0,0 C 77 % 84 % 0 % 1008,4 hPa 0,0 l/m 7,5 km/h (2 Bft) SW 0,00 h 0,0 UV-I 10,8 C 12,8 C 9,7 km/h (2 Bft)
09.06.2011 00:00 14,6 C 20,6 C 13,2 C 14,0 C 12,9 C 0,0 C 77 % 85 % 0 % 1008,6 hPa 0,0 l/m 3,9 km/h (1 Bft) SW 0,00 h 0,0 UV-I 10,7 C 12,9 C 5,0 km/h (1 Bft)
09.06.2011 01:00 14,7 C 20,4 C 13,4 C 14,1 C 12,9 C 0,0 C 79 % 86 % 0 % 1009,0 hPa 0,0 l/m 0,8 km/h (0 Bft) S 0,00 h 0,0 UV-I 11,1 C 12,9 C 1,4 km/h (1 Bft)
09.06.2011 02:00 14,7 C 20,3 C 13,4 C 14,1 C 13,0 C 0,0 C 77 % 84 % 0 % 1009,6 hPa 0,0 l/m 3,8 km/h (1 Bft) S-SW 0,00 h 0,0 UV-I 10,7 C 13,0 C 4,5 km/h (1 Bft)
09.06.2011 03:00 14,6 C 20,1 C 13,2 C 14,0 C 12,9 C 0,0 C 75 % 82 % 0 % 1009,7 hPa 0,0 l/m 3,0 km/h (1 Bft) SW 0,00 h 0,0 UV-I 10,2 C 12,9 C 4,1 km/h (1 Bft)
09.06.2011 04:00 14,4 C 19,9 C 13,0 C 13,8 C 12,6 C 0,0 C 75 % 82 % 0 % 1009,9 hPa 0,0 l/m 4,0 km/h (1 Bft) W-SW 0,00 h 0,0 UV-I 10,1 C 12,6 C 4,4 km/h (1 Bft)
09.06.2011 05:00 14,1 C 19,8 C 12,6 C 13,5 C 12,1 C 0,0 C 75 % 82 % 0 % 1010,4 hPa 0,0 l/m 4,2 km/h (1 Bft) S 0,00 h 0,0 UV-I 9,8 C 12,1 C 6,3 km/h (2 Bft)
09.06.2011 06:00 14,5 C 19,7 C 12,3 C 14,0 C 12,8 C 0,0 C 74 % 83 % 0 % 1010,9 hPa 0,0 l/m 4,9 km/h (1 Bft) S-SW 0,00 h 0,0 UV-I 9,9 C 12,8 C 6,5 km/h (2 Bft)
09.06.2011 07:00 15,5 C 19,5 C 13,0 C 17,7 C 17,6 C 2,2 C 69 % 79 % 57 % 1011,3 hPa 0,0 l/m 3,5 km/h (1 Bft) SW 0,17 h 0,2 UV-I 9,9 C 17,6 C 4,7 km/h (1 Bft)
09.06.2011 08:00 16,6 C 19,4 C 13,6 C 17,6 C 17,6 C 1,1 C 64 % 75 % 28 % 1011,9 hPa 0,0 l/m 5,0 km/h (1 Bft) SW 0,00 h 0,5 UV-I 9,7 C 17,6 C 6,6 km/h (2 Bft)
09.06.2011 09:00 16,8 C 19,2 C 14,6 C 20,7 C 20,7 C 3,9 C 64 % 73 % 90 % 1012,0 hPa 0,0 l/m 4,5 km/h (1 Bft) W-SW 0,92 h 1,2 UV-I 10,0 C 20,7 C 6,2 km/h (2 Bft)
09.06.2011 10:00 17,6 C 19,3 C 16,0 C 21,5 C 21,5 C 3,9 C 61 % 68 % 97 % 1012,1 hPa 0,0 l/m 6,6 km/h (2 Bft) W-SW 0,92 h 1,8 UV-I 9,9 C 21,5 C 9,5 km/h (2 Bft)
09.06.2011 11:00 18,0 C 19,2 C 16,9 C 20,3 C 20,3 C 2,3 C 58 % 62 % 60 % 1012,0 hPa 0,0 l/m 7,1 km/h (2 Bft) SW 0,08 h 1,8 UV-I 9,5 C 20,3 C 8,2 km/h (2 Bft)
09.06.2011 12:00 18,7 C 19,3 C 17,8 C 21,2 C 21,2 C 2,5 C 53 % 57 % 66 % 1012,1 hPa 0,0 l/m 7,8 km/h (2 Bft) SW 0,08 h 2,6 UV-I 9,0 C 21,2 C 11,3 km/h (2 Bft)
09.06.2011 13:00 19,8 C 19,3 C 19,2 C 22,6 C 22,6 C 2,8 C 50 % 53 % 74 % 1012,2 hPa 0,0 l/m 7,9 km/h (2 Bft) SW 0,17 h 2,6 UV-I 8,9 C 22,6 C 11,6 km/h (2 Bft)
09.06.2011 14:00 19,8 C 19,4 C 19,5 C 22,1 C 22,1 C 2,2 C 49 % 52 % 59 % 1012,2 hPa 0,0 l/m 6,5 km/h (2 Bft) S-SW 0,08 h 1,6 UV-I 8,9 C 22,1 C 8,1 km/h (2 Bft)
09.06.2011 15:00 20,5 C 19,5 C 20,9 C 23,1 C 23,1 C 2,6 C 47 % 47 % 69 % 1012,2 hPa 0,0 l/m 6,7 km/h (2 Bft) S-SO 0,08 h 1,8 UV-I 8,8 C 23,1 C 7,5 km/h (2 Bft)
09.06.2011 16:00 20,8 C 19,6 C 20,6 C 22,6 C 22,6 C 1,8 C 45 % 45 % 49 % 1012,2 hPa 0,0 l/m 7,9 km/h (2 Bft) W-SW 0,00 h 1,1 UV-I 8,3 C 22,6 C 10,2 km/h (2 Bft)
09.06.2011 17:00 21,3 C 19,7 C 20,6 C 22,6 C 22,6 C 1,4 C 41 % 43 % 36 % 1012,7 hPa 0,0 l/m 7,4 km/h (2 Bft) SW 0,00 h 0,7 UV-I 7,5 C 22,6 C 9,7 km/h (2 Bft)
09.06.2011 18:00 21,6 C 19,8 C 20,5 C 22,8 C 22,8 C 1,3 C 40 % 43 % 33 % 1012,3 hPa 0,0 l/m 5,1 km/h (1 Bft) S-SO 0,00 h 0,3 UV-I 7,5 C 22,8 C 5,5 km/h (1 Bft)
09.06.2011 19:00 21,0 C 19,9 C 19,5 C 21,2 C 21,0 C 0,2 C 41 % 45 % 6 % 1012,7 hPa 0,0 l/m 4,5 km/h (1 Bft) SW 0,00 h 0,1 UV-I 7,4 C 21,0 C 4,7 km/h (1 Bft)
09.06.2011 20:00 20,1 C 19,9 C 18,6 C 19,7 C 18,9 C 0,0 C 46 % 50 % 0 % 1013,2 hPa 0,0 l/m 1,4 km/h (1 Bft) S-SW 0,00 h 0,0 UV-I 8,1 C 18,9 C 1,8 km/h (1 Bft)
09.06.2011 21:00 19,0 C 19,9 C 17,4 C 18,2 C 16,5 C 0,0 C 50 % 55 % 0 % 1013,8 hPa 0,0 l/m 1,0 km/h (0 Bft) S-SO 0,00 h 0,0 UV-I 8,4 C 16,5 C 1,0 km/h (0 Bft)
09.06.2011 22:00 17,0 C 20,0 C 15,3 C 15,6 C 12,9 C 0,0 C 60 % 67 % 0 % 1014,0 hPa 0,0 l/m 0,0 km/h (0 Bft) N 0,00 h 0,0 UV-I 9,2 C 12,9 C 0,1 km/h (0 Bft)
09.06.2011 23:00 15,1 C 20,0 C 13,4 C 13,6 C 10,6 C 0,0 C 67 % 73 % 0 % 1014,6 hPa 0,0 l/m 0,0 km/h (0 Bft) N 0,00 h 0,0 UV-I 9,0 C 10,6 C 0,0 km/h (0 Bft)
10.06.2011 00:00 13,9 C 19,9 C 12,2 C 12,3 C 9,0 C 0,0 C 71 % 78 % 0 % 1014,7 hPa 0,0 l/m 0,0 km/h (0 Bft) N 0,00 h 0,0 UV-I 8,7 C 9,0 C 0,0 km/h (0 Bft)
10.06.2011 01:00 13,0 C 19,8 C 11,4 C 11,5 C 8,4 C 0,0 C 73 % 80 % 0 % 1014,7 hPa 0,0 l/m 0,0 km/h (0 Bft) N 0,00 h 0,0 UV-I 8,4 C 8,4 C 0,0 km/h (0 Bft)
10.06.2011 02:00 12,3 C 19,8 C 10,7 C 10,8 C 7,7 C 0,0 C 75 % 81 % 0 % 1014,8 hPa 0,0 l/m 0,0 km/h (0 Bft) N 0,00 h 0,0 UV-I 8,0 C 7,7 C 0,0 km/h (0 Bft)
10.06.2011 03:00 11,6 C 19,6 C 10,2 C 10,1 C 7,2 C 0,0 C 76 % 83 % 0 % 1014,8 hPa 0,0 l/m 0,0 km/h (0 Bft) N 0,00 h 0,0 UV-I 7,6 C 7,2 C 0,0 km/h (0 Bft)
10.06.2011 04:00 11,0 C 19,4 C 9,6 C 9,6 C 6,8 C 0,0 C 77 % 84 % 0 % 1014,8 hPa 0,0 l/m 0,0 km/h (0 Bft) N 0,00 h 0,0 UV-I 7,2 C 6,8 C 0,0 km/h (0 Bft)
10.06.2011 05:00 10,5 C 19,3 C 9,0 C 9,2 C 6,8 C 0,0 C 79 % 85 % 0 % 1015,4 hPa 0,0 l/m 0,0 km/h (0 Bft) N 0,00 h 0,0 UV-I 7,0 C 6,8 C 0,2 km/h (0 Bft)
10.06.2011 06:00 11,9 C 19,0 C 9,7 C 10,7 C 8,3 C 0,0 C 76 % 85 % 0 % 1015,7 hPa 0,0 l/m 0,0 km/h (0 Bft) N 0,00 h 0,0 UV-I 7,8 C 8,3 C 0,0 km/h (0 Bft)
10.06.2011 07:00 14,0 C 18,8 C 11,4 C 18,4 C 18,4 C 4,4 C 71 % 82 % 87 % 1015,6 hPa 0,0 l/m 0,7 km/h (0 Bft) NO 0,78 h 0,2 UV-I 8,9 C 18,4 C 1,2 km/h (1 Bft)
10.06.2011 08:00 18,5 C 18,7 C 12,5 C 22,3 C 22,3 C 3,8 C 60 % 81 % 82 % 1015,7 hPa 0,0 l/m 1,3 km/h (1 Bft) S 0,67 h 0,7 UV-I 10,7 C 22,3 C 1,8 km/h (1 Bft)
10.06.2011 09:00 18,1 C 18,6 C 14,4 C 24,3 C 24,3 C 6,2 C 61 % 77 % 100 % 1015,5 hPa 0,0 l/m 1,8 km/h (1 Bft) S-SO 1,00 h 1,4 UV-I 10,5 C 24,3 C 3,1 km/h (1 Bft)
10.06.2011 10:00 18,3 C 18,6 C 15,9 C 25,3 C 25,3 C 7,1 C 60 % 71 % 100 % 1015,4 hPa 0,0 l/m 2,1 km/h (1 Bft) SO 1,00 h 2,0 UV-I 10,4 C 25,3 C 3,3 km/h (1 Bft)
10.06.2011 11:00 18,9 C 18,7 C 17,3 C 22,9 C 22,9 C 4,0 C 58 % 66 % 95 % 1015,1 hPa 0,0 l/m 1,6 km/h (1 Bft) SO 0,92 h 1,9 UV-I 10,3 C 22,9 C 3,0 km/h (1 Bft)
10.06.2011 12:00 19,9 C 18,9 C 18,5 C 24,7 C 24,7 C 4,8 C 54 % 61 % 100 % 1015,0 hPa 0,0 l/m 1,4 km/h (1 Bft) O-NO 1,00 h 2,3 UV-I 10,2 C 24,7 C 1,9 km/h (1 Bft)
10.06.2011 13:00 20,7 C 19,1 C 19,6 C 26,0 C 26,0 C 5,3 C 51 % 58 % 100 % 1014,7 hPa 0,0 l/m 1,4 km/h (1 Bft) S 1,00 h 2,5 UV-I 10,2 C 26,0 C 1,3 km/h (1 Bft)
10.06.2011 14:00 21,4 C 19,2 C 20,5 C 26,5 C 26,5 C 5,2 C 48 % 53 % 100 % 1014,2 hPa 0,0 l/m 1,4 km/h (1 Bft) NO 1,00 h 2,0 UV-I 10,0 C 26,5 C 2,3 km/h (1 Bft)
10.06.2011 15:00 21,1 C 19,4 C 20,6 C 23,6 C 23,6 C 2,5 C 49 % 52 % 64 % 1014,0 hPa 0,0 l/m 4,0 km/h (1 Bft) W-SW 0,25 h 1,3 UV-I 9,9 C 23,6 C 6,7 km/h (2 Bft)
10.06.2011 16:00 21,2 C 19,6 C 20,7 C 23,1 C 23,1 C 2,0 C 49 % 51 % 52 % 1013,9 hPa 0,0 l/m 3,9 km/h (1 Bft) SW 0,08 h 0,9 UV-I 10,0 C 23,1 C 5,1 km/h (1 Bft)
10.06.2011 17:00 20,8 C 19,8 C 20,0 C 22,0 C 22,0 C 1,2 C 50 % 52 % 32 % 1013,8 hPa 0,0 l/m 4,0 km/h (1 Bft) SW 0,00 h 0,5 UV-I 9,9 C 22,0 C 5,4 km/h (1 Bft)
10.06.2011 18:00 19,9 C 19,8 C 19,1 C 20,0 C 20,0 C 0,1 C 53 % 58 % 2 % 1013,6 hPa 0,0 l/m 3,2 km/h (1 Bft) SW 0,00 h 0,1 UV-I 10,2 C 20,0 C 4,2 km/h (1 Bft)
10.06.2011 19:00 19,4 C 20,0 C 18,5 C 19,3 C 19,0 C 0,0 C 57 % 61 % 0 % 1013,6 hPa 0,0 l/m 1,6 km/h (1 Bft) S 0,00 h 0,0 UV-I 10,7 C 19,0 C 1,9 km/h (1 Bft)
10.06.2011 20:00 18,8 C 20,0 C 17,7 C 18,4 C 17,7 C 0,0 C 61 % 66 % 0 % 1013,6 hPa 0,0 l/m 0,8 km/h (0 Bft) SW 0,00 h 0,0 UV-I 11,2 C 17,7 C 0,9 km/h (0 Bft)
10.06.2011 21:00 17,8 C 20,0 C 16,7 C 17,2 C 16,0 C 0,0 C 65 % 70 % 0 % 1013,8 hPa 0,0 l/m 0,0 km/h (0 Bft) N 0,00 h 0,0 UV-I 11,0 C 16,0 C 0,0 km/h (0 Bft)
10.06.2011 22:00 16,9 C 20,1 C 15,8 C 16,2 C 14,9 C 0,0 C 71 % 76 % 0 % 1014,0 hPa 0,0 l/m 0,1 km/h (0 Bft) N 0,00 h 0,0 UV-I 11,5 C 14,9 C 0,2 km/h (0 Bft)
10.06.2011 23:00 16,5 C 20,0 C 15,2 C 15,8 C 14,5 C 0,0 C 74 % 80 % 0 % 1014,1 hPa 0,0 l/m 0,0 km/h (0 Bft) N 0,00 h 0,0 UV-I 11,9 C 14,5 C 0,0 km/h (0 Bft)
11.06.2011 00:00 16,0 C 20,1 C 14,9 C 15,4 C 14,1 C 0,0 C 77 % 83 % 0 % 1014,1 hPa 0,0 l/m 0,1 km/h (0 Bft) N 0,00 h 0,0 UV-I 12,1 C 14,1 C 0,0 km/h (0 Bft)
11.06.2011 01:00 15,5 C 20,2 C 14,5 C 14,9 C 13,6 C 0,0 C 81 % 86 % 0 % 1013,9 hPa 0,0 l/m 0,1 km/h (0 Bft) N 0,00 h 0,0 UV-I 12,2 C 13,6 C 0,2 km/h (0 Bft)
11.06.2011 02:00 15,2 C 20,2 C 14,3 C 14,5 C 13,2 C 0,0 C 82 % 87 % 0 % 1013,8 hPa 0,0 l/m 0,0 km/h (0 Bft) N 0,00 h 0,0 UV-I 12,2 C 13,2 C 0,0 km/h (0 Bft)
11.06.2011 03:00 15,0 C 20,2 C 14,0 C 14,3 C 13,0 C 0,0 C 84 % 88 % 0 % 1013,5 hPa 0,0 l/m 0,1 km/h (0 Bft) N 0,00 h 0,0 UV-I 12,3 C 13,0 C 0,3 km/h (0 Bft)
11.06.2011 04:00 14,7 C 20,1 C 13,7 C 14,0 C 12,5 C 0,0 C 85 % 89 % 0 % 1013,5 hPa 0,0 l/m 0,1 km/h (0 Bft) N 0,00 h 0,0 UV-I 12,1 C 12,5 C 0,2 km/h (0 Bft)
11.06.2011 05:00 13,9 C 20,0 C 12,9 C 13,1 C 11,4 C 0,0 C 84 % 89 % 0 % 1013,6 hPa 0,0 l/m 0,0 km/h (0 Bft) N 0,00 h 0,0 UV-I 11,3 C 11,4 C 0,0 km/h (0 Bft)
11.06.2011 06:00 15,1 C 19,8 C 12,9 C 14,1 C 12,1 C 0,0 C 82 % 89 % 0 % 1013,7 hPa 0,0 l/m 0,2 km/h (0 Bft) N 0,00 h 0,0 UV-I 12,0 C 12,1 C 0,4 km/h (0 Bft)
11.06.2011 07:00 16,7 C 19,4 C 13,9 C 21,3 C 21,3 C 4,6 C 77 % 88 % 87 % 1013,8 hPa 0,0 l/m 0,5 km/h (0 Bft) N 0,67 h 0,2 UV-I 12,6 C 21,3 C 0,9 km/h (0 Bft)
11.06.2011 08:00 21,1 C 19,4 C 15,2 C 25,3 C 25,3 C 4,3 C 63 % 83 % 91 % 1014,0 hPa 0,0 l/m 1,1 km/h (0 Bft) S 0,75 h 0,7 UV-I 13,6 C 25,3 C 1,4 km/h (1 Bft)
11.06.2011 09:00 20,4 C 19,3 C 16,6 C 26,2 C 26,2 C 5,8 C 58 % 74 % 99 % 1013,9 hPa 0,0 l/m 2,5 km/h (1 Bft) SW 1,00 h 1,5 UV-I 11,9 C 26,2 C 4,5 km/h (1 Bft)
11.06.2011 10:00 20,4 C 19,3 C 18,0 C 26,4 C 26,4 C 6,0 C 58 % 69 % 100 % 1013,9 hPa 0,0 l/m 3,7 km/h (1 Bft) W-SW 1,00 h 2,0 UV-I 11,9 C 26,4 C 5,8 km/h (2 Bft)
11.06.2011 11:00 21,4 C 19,5 C 19,6 C 27,0 C 27,0 C 5,6 C 54 % 61 % 100 % 1014,0 hPa 0,0 l/m 4,0 km/h (1 Bft) SW 1,00 h 3,0 UV-I 11,7 C 27,0 C 5,5 km/h (1 Bft)
11.06.2011 12:00 22,1 C 19,6 C 21,0 C 25,8 C 25,8 C 3,7 C 51 % 55 % 92 % 1014,0 hPa 0,0 l/m 5,9 km/h (2 Bft) S-SW 0,75 h 3,1 UV-I 11,3 C 25,8 C 8,4 km/h (2 Bft)
11.06.2011 13:00 22,2 C 19,8 C 21,6 C 24,9 C 24,9 C 2,7 C 51 % 54 % 69 % 1013,9 hPa 0,0 l/m 6,7 km/h (2 Bft) SW 0,33 h 2,5 UV-I 11,6 C 24,9 C 9,6 km/h (2 Bft)
11.06.2011 14:00 21,5 C 20,0 C 20,8 C 23,3 C 23,3 C 1,7 C 55 % 58 % 46 % 1014,1 hPa 0,0 l/m 6,4 km/h (2 Bft) SW 0,00 h 1,6 UV-I 12,1 C 23,3 C 7,9 km/h (2 Bft)
11.06.2011 15:00 21,4 C 20,1 C 20,8 C 22,7 C 22,7 C 1,4 C 55 % 57 % 36 % 1014,3 hPa 0,0 l/m 6,2 km/h (2 Bft) SW 0,00 h 1,2 UV-I 12,0 C 22,7 C 7,6 km/h (2 Bft)
11.06.2011 16:00 20,5 C 20,2 C 19,5 C 20,7 C 20,6 C 0,3 C 63 % 68 % 7 % 1014,1 hPa 0,0 l/m 4,8 km/h (1 Bft) S 0,00 h 0,7 UV-I 13,1 C 20,6 C 5,2 km/h (1 Bft)
11.06.2011 17:00 19,0 C 20,3 C 17,2 C 18,6 C 17,5 C 0,0 C 67 % 75 % 1 % 1015,1 hPa 0,0 l/m 5,4 km/h (1 Bft) SW 0,00 h 0,3 UV-I 12,8 C 17,5 C 7,2 km/h (2 Bft)
11.06.2011 18:00 18,9 C 20,3 C 17,1 C 19,6 C 19,4 C 0,7 C 72 % 79 % 19 % 1015,5 hPa 0,0 l/m 1,6 km/h (1 Bft) W-SW 0,00 h 0,2 UV-I 13,7 C 19,4 C 2,0 km/h (1 Bft)
11.06.2011 19:00 19,1 C 20,3 C 17,5 C 19,6 C 19,2 C 0,7 C 69 % 76 % 17 % 1015,3 hPa 0,0 l/m 2,2 km/h (1 Bft) S 0,00 h 0,1 UV-I 13,3 C 19,2 C 2,5 km/h (1 Bft)
11.06.2011 20:00 18,0 C 20,4 C 16,4 C 17,3 C 15,9 C 0,0 C 73 % 80 % 0 % 1015,6 hPa 0,0 l/m 0,8 km/h (0 Bft) N 0,00 h 0,0 UV-I 13,1 C 15,9 C 1,0 km/h (0 Bft)
11.06.2011 21:00 17,2 C 20,4 C 15,9 C 16,5 C 15,2 C 0,0 C 77 % 82 % 0 % 1016,1 hPa 0,0 l/m 0,1 km/h (0 Bft) N 0,00 h 0,0 UV-I 13,1 C 15,2 C 0,2 km/h (0 Bft)
11.06.2011 22:00 16,5 C 20,5 C 15,4 C 15,8 C 14,4 C 0,0 C 81 % 86 % 0 % 1016,9 hPa 0,0 l/m 0,0 km/h (0 Bft) N 0,00 h 0,0 UV-I 13,2 C 14,4 C 0,0 km/h (0 Bft)
11.06.2011 23:00 16,2 C 20,5 C 15,0 C 15,5 C 14,1 C 0,0 C 83 % 88 % 0 % 1017,1 hPa 0,0 l/m 0,2 km/h (0 Bft) N 0,00 h 0,0 UV-I 13,3 C 14,1 C 0,4 km/h (0 Bft)
12.06.2011 00:00 15,7 C 20,6 C 14,7 C 15,1 C 13,8 C 0,0 C 85 % 90 % 0 % 1017,2 hPa 0,0 l/m 0,1 km/h (0 Bft) N 0,00 h 0,0 UV-I 13,2 C 13,8 C 0,2 km/h (0 Bft)
12.06.2011 01:00 15,5 C 20,5 C 14,5 C 14,9 C 13,7 C 0,0 C 86 % 90 % 0 % 1017,0 hPa 0,0 l/m 0,1 km/h (0 Bft) N 0,00 h 0,0 UV-I 13,1 C 13,7 C 0,3 km/h (0 Bft)
12.06.2011 02:00 15,2 C 20,4 C 14,2 C 14,5 C 13,1 C 0,0 C 86 % 90 % 0 % 1016,8 hPa 0,0 l/m 0,0 km/h (0 Bft) N 0,00 h 0,0 UV-I 12,9 C 13,1 C 0,2 km/h (0 Bft)
12.06.2011 03:00 14,8 C 20,4 C 13,9 C 14,2 C 13,0 C 0,0 C 87 % 91 % 0 % 1017,1 hPa 0,0 l/m 0,1 km/h (0 Bft) N 0,00 h 0,0 UV-I 12,6 C 13,0 C 0,0 km/h (0 Bft)
12.06.2011 04:00 14,6 C 20,3 C 13,7 C 14,0 C 12,9 C 0,0 C 87 % 91 % 0 % 1017,1 hPa 0,0 l/m 0,0 km/h (0 Bft) N 0,00 h 0,0 UV-I 12,5 C 12,9 C 0,0 km/h (0 Bft)
12.06.2011 05:00 14,6 C 20,2 C 13,5 C 14,0 C 12,8 C 0,0 C 87 % 91 % 0 % 1017,3 hPa 0,0 l/m 0,1 km/h (0 Bft) N 0,00 h 0,0 UV-I 12,5 C 12,8 C 0,0 km/h (0 Bft)
12.06.2011 06:00 14,7 C 20,0 C 13,8 C 14,3 C 13,6 C 0,0 C 88 % 92 % 0 % 1017,5 hPa 0,0 l/m 0,2 km/h (0 Bft) N 0,00 h 0,0 UV-I 12,7 C 13,6 C 0,2 km/h (0 Bft)
12.06.2011 07:00 16,1 C 19,6 C 14,3 C 19,3 C 19,3 C 3,2 C 84 % 91 % 68 % 1017,7 hPa 0,0 l/m 0,6 km/h (0 Bft) SW 0,50 h 0,2 UV-I 13,5 C 19,3 C 1,1 km/h (1 Bft)
12.06.2011 08:00 18,4 C 19,4 C 15,0 C 21,3 C 21,3 C 2,8 C 69 % 83 % 67 % 1017,8 hPa 0,0 l/m 1,1 km/h (1 Bft) O-NO 0,50 h 0,5 UV-I 12,5 C 21,3 C 1,9 km/h (1 Bft)
12.06.2011 09:00 18,7 C 19,4 C 15,7 C 24,1 C 24,1 C 5,5 C 62 % 75 % 94 % 1017,9 hPa 0,0 l/m 1,5 km/h (1 Bft) O-NO 0,92 h 1,4 UV-I 11,3 C 24,1 C 2,8 km/h (1 Bft)
12.06.2011 10:00 19,2 C 19,4 C 16,7 C 25,3 C 25,3 C 6,1 C 55 % 66 % 100 % 1018,3 hPa 0,0 l/m 2,6 km/h (1 Bft) NO 1,03 h 2,0 UV-I 10,0 C 25,3 C 3,1 km/h (1 Bft)
12.06.2011 11:00 20,2 C 19,5 C 17,2 C 26,0 C 26,0 C 5,8 C 51 % 63 % 100 % 1018,4 hPa 0,0 l/m 1,8 km/h (1 Bft) NO 0,97 h 2,8 UV-I 9,7 C 26,0 C 2,2 km/h (1 Bft)
12.06.2011 12:00 21,4 C 19,6 C 18,7 C 26,6 C 26,6 C 5,2 C 48 % 58 % 100 % 1018,6 hPa 0,0 l/m 2,6 km/h (1 Bft) S 1,00 h 3,4 UV-I 9,9 C 26,6 C 4,2 km/h (1 Bft)
12.06.2011 13:00 22,3 C 19,8 C 19,3 C 27,6 C 27,6 C 5,3 C 42 % 56 % 100 % 1018,6 hPa 0,0 l/m 3,0 km/h (1 Bft) W-SW 1,00 h 3,4 UV-I 8,8 C 27,6 C 4,3 km/h (1 Bft)
12.06.2011 14:00 22,4 C 19,9 C 22,0 C 25,4 C 25,4 C 3,0 C 41 % 43 % 77 % 1018,3 hPa 0,0 l/m 3,6 km/h (1 Bft) S 0,58 h 2,5 UV-I 8,4 C 25,4 C 4,6 km/h (1 Bft)
12.06.2011 15:00 23,2 C 20,1 C 24,0 C 27,2 C 27,2 C 3,9 C 40 % 41 % 92 % 1018,0 hPa 0,0 l/m 3,3 km/h (1 Bft) S 0,78 h 2,2 UV-I 9,0 C 27,2 C 3,7 km/h (1 Bft)
12.06.2011 16:00 23,5 C 20,3 C 23,5 C 26,7 C 26,7 C 3,2 C 38 % 39 % 75 % 1017,7 hPa 0,0 l/m 2,6 km/h (1 Bft) SW 0,42 h 1,1 UV-I 8,4 C 26,7 C 3,2 km/h (1 Bft)
12.06.2011 17:00 24,1 C 20,4 C 23,5 C 26,7 C 26,7 C 2,6 C 39 % 41 % 68 % 1017,3 hPa 0,0 l/m 2,5 km/h (1 Bft) S-SW 0,08 h 0,7 UV-I 9,2 C 26,7 C 2,4 km/h (1 Bft)
12.06.2011 18:00 24,5 C 20,5 C 23,0 C 26,9 C 26,9 C 2,3 C 38 % 41 % 61 % 1017,3 hPa 0,0 l/m 2,2 km/h (1 Bft) NO 0,08 h 0,3 UV-I 9,3 C 26,9 C 2,1 km/h (1 Bft)
12.06.2011 19:00 24,1 C 20,7 C 21,8 C 25,3 C 25,3 C 1,2 C 40 % 45 % 32 % 1016,7 hPa 0,0 l/m 0,5 km/h (0 Bft) N 0,00 h 0,1 UV-I 9,6 C 25,3 C 0,6 km/h (0 Bft)
12.06.2011 20:00 22,1 C 20,7 C 19,7 C 21,6 C 20,4 C 0,1 C 47 % 54 % 3 % 1016,9 hPa 0,0 l/m 0,0 km/h (0 Bft) N 0,00 h 0,0 UV-I 10,3 C 20,4 C 0,0 km/h (0 Bft)
12.06.2011 21:00 19,6 C 20,7 C 17,5 C 18,3 C 15,5 C 0,0 C 61 % 68 % 0 % 1016,9 hPa 0,0 l/m 0,0 km/h (0 Bft) N 0,00 h 0,0 UV-I 11,8 C 15,5 C 0,0 km/h (0 Bft)
12.06.2011 22:00 17,7 C 20,8 C 15,7 C 16,2 C 13,3 C 0,0 C 67 % 74 % 0 % 1016,8 hPa 0,0 l/m 0,1 km/h (0 Bft) N 0,00 h 0,0 UV-I 11,4 C 13,3 C 0,2 km/h (0 Bft)
12.06.2011 23:00 16,6 C 20,6 C 14,7 C 15,2 C 12,3 C 0,0 C 70 % 77 % 0 % 1017,1 hPa 0,0 l/m 0,0 km/h (0 Bft) N 0,00 h 0,0 UV-I 11,2 C 12,3 C 0,0 km/h (0 Bft)
Min-Datum _ 10.06.11 10.06.11 10.06.11 10.06.11 10.06.11 06.06.11 12.06.11 12.06.11 06.06.11 08.06.11 - 06.06.11 - - 06.06.11 10.06.11 10.06.11 06.06.11
_ Min-Zeit 05:15 08:00 05:40 05:15 04:50 00:00 16:09 16:40 00:00 07:30 - 00:20 - - 00:00 05:15 04:50 00:00
Minimum _ 10,3 C 18,6 C 8,8 C 9,1 C 6,6 C 0,0 C 37 % 34 % 0 % 1000,0 hPa - 0,0 km/h (0 Bft) - - 0,0 UV-I 6,8 C 6,6 C 0,0 km/h (0 Bft)
Max-Datum _ 06.06.11 06.06.11 07.06.11 06.06.11 06.06.11 06.06.11 12.06.11 06.06.11 06.06.11 12.06.11 06.06.11 08.06.11 - 12.06.11 08.06.11 06.06.11 06.06.11 08.06.11
_ Max-Zeit 08:30 00:00 15:15 12:40 12:40 10:20 04:30 05:50 07:20 12:30 14:20 13:55 - 10:14 13:00 08:30 12:40 13:50
Maximum _ 28,4 C 22,9 C 27,1 C 32,8 C 32,8 C 8,3 C 88 % 95 % 100 % 1018,7 hPa 5,5 l/m 13,2 km/h
SW (3 Bft)
- 0,23 h 4,4 UV-I 20,9 C 32,8 C 28,3 km/h
SW (4 Bft)
Durchschnitt _ 19,2 C 20,5 C 17,6 C 20,4 C 19,6 C 1,6 C 68 % 76 % 34 % 1010,0 hPa #6,2 l/m 2,4 km/h (1 Bft) SW #37:51 h 1,4 UV-I 12,9 C 19,6 C 3,3 km/h (1 Bft)
2013 www.wetterstation-wechselburg.de